createdAt,value
2023-05-22T00:00:21.866Z,263.98
2023-05-22T00:01:21.849Z,265.47
2023-05-22T00:02:22.773Z,263.98
2023-05-22T00:03:21.822Z,265.69
2023-05-22T00:04:21.858Z,264.83
2023-05-22T00:05:21.792Z,265.69
2023-05-22T00:06:21.832Z,267.85
2023-05-22T00:07:21.818Z,267.41
2023-05-22T00:08:22.676Z,266.98
2023-05-22T00:09:21.746Z,266.55
2023-05-22T00:10:21.704Z,266.98
2023-05-22T00:11:21.779Z,266.11
2023-05-22T00:12:21.752Z,266.11
2023-05-22T00:13:21.679Z,266.76
2023-05-22T00:14:22.624Z,266.98
2023-05-22T00:15:21.637Z,267.41
2023-05-22T00:16:22.343Z,267.85
2023-05-22T00:17:21.735Z,267.85
2023-05-22T00:18:21.621Z,268.28
2023-05-22T00:19:22.592Z,267.85
2023-05-22T00:20:21.614Z,268.50
2023-05-22T00:21:21.626Z,268.72
2023-05-22T00:22:21.583Z,268.72
2023-05-22T00:23:21.541Z,268.94
2023-05-22T00:24:21.613Z,268.72
2023-05-22T00:25:22.443Z,268.28
2023-05-22T00:26:21.509Z,267.85
2023-05-22T00:27:21.534Z,269.38
2023-05-22T00:28:21.463Z,271.38
2023-05-22T00:29:25.160Z,270.04
2023-05-22T00:30:22.378Z,267.85
2023-05-22T00:31:21.481Z,270.04
2023-05-22T00:32:21.434Z,268.72
2023-05-22T00:33:21.430Z,270.04
2023-05-22T00:34:21.498Z,269.82
2023-05-22T00:35:21.437Z,271.15
2023-05-22T00:36:22.338Z,267.85
2023-05-22T00:37:21.377Z,270.93
2023-05-22T00:38:21.359Z,270.49
2023-05-22T00:39:21.374Z,270.26
2023-05-22T00:40:21.355Z,269.60
2023-05-22T00:41:21.386Z,273.18
2023-05-22T00:42:22.346Z,270.04
2023-05-22T00:43:21.362Z,271.15
2023-05-22T00:44:21.302Z,270.04
2023-05-22T00:45:21.313Z,271.38
2023-05-22T00:46:21.567Z,270.93
2023-05-22T00:47:21.293Z,272.73
2023-05-22T00:48:22.190Z,272.27
2023-05-22T00:49:21.309Z,271.38
2023-05-22T00:50:21.323Z,270.49
2023-05-22T00:51:21.246Z,270.93
2023-05-22T00:52:21.217Z,271.83
2023-05-22T00:53:21.168Z,272.50
2023-05-22T00:54:22.086Z,270.49
2023-05-22T00:55:21.176Z,272.05
2023-05-22T00:56:21.136Z,271.38
2023-05-22T00:57:21.124Z,272.95
2023-05-22T00:58:21.145Z,273.63
2023-05-22T00:59:22.029Z,271.15
2023-05-22T01:00:21.309Z,272.73
2023-05-22T01:01:21.174Z,273.18
2023-05-22T01:02:21.077Z,271.15
2023-05-22T01:03:21.104Z,272.05
2023-05-22T01:04:21.958Z,272.27
2023-05-22T01:05:21.019Z,273.63
2023-05-22T01:06:21.040Z,273.63
2023-05-22T01:07:21.001Z,273.63
2023-05-22T01:08:20.958Z,274.55
2023-05-22T01:09:21.910Z,273.40
2023-05-22T01:10:20.954Z,273.40
2023-05-22T01:11:20.992Z,271.83
2023-05-22T01:12:20.914Z,272.27
2023-05-22T01:13:20.919Z,273.63
2023-05-22T01:14:21.926Z,273.40
2023-05-22T01:15:20.914Z,275.00
2023-05-22T01:16:20.972Z,271.38
2023-05-22T01:17:20.859Z,274.09
2023-05-22T01:18:20.847Z,273.86
2023-05-22T01:19:20.920Z,273.18
2023-05-22T01:20:21.846Z,272.73
2023-05-22T01:21:20.865Z,272.73
2023-05-22T01:22:20.796Z,274.32
2023-05-22T01:23:20.829Z,273.40
2023-05-22T01:24:20.814Z,274.55
2023-05-22T01:25:20.767Z,273.63
2023-05-22T01:26:21.695Z,273.63
2023-05-22T01:27:20.800Z,272.73
2023-05-22T01:28:20.721Z,272.50
2023-05-22T01:29:20.723Z,275.92
2023-05-22T01:30:20.705Z,272.95
2023-05-22T01:31:21.735Z,273.86
2023-05-22T01:32:20.697Z,273.40
2023-05-22T01:33:20.869Z,273.63
2023-05-22T01:34:20.730Z,275.00
2023-05-22T01:35:20.658Z,273.86
2023-05-22T01:36:20.669Z,273.40
2023-05-22T01:37:21.560Z,275.46
2023-05-22T01:38:20.569Z,275.46
2023-05-22T01:39:20.593Z,275.00
2023-05-22T01:40:20.634Z,274.77
2023-05-22T01:41:20.563Z,274.55
2023-05-22T01:42:20.588Z,275.69
2023-05-22T01:43:21.490Z,275.46
2023-05-22T01:44:20.529Z,276.39
2023-05-22T01:45:20.506Z,275.00
2023-05-22T01:46:20.535Z,275.69
2023-05-22T01:47:20.518Z,275.00
2023-05-22T01:48:21.407Z,277.32
2023-05-22T01:49:20.448Z,275.00
2023-05-22T01:50:20.540Z,276.62
2023-05-22T01:51:20.436Z,275.23
2023-05-22T01:52:20.472Z,276.16
2023-05-22T01:53:20.429Z,276.62
2023-05-22T01:54:21.350Z,275.46
2023-05-22T01:55:20.385Z,276.39
2023-05-22T01:56:20.395Z,276.16
2023-05-22T01:57:20.394Z,277.32
2023-05-22T01:58:20.344Z,275.46
2023-05-22T01:59:20.390Z,275.00
2023-05-22T02:00:21.290Z,276.85
2023-05-22T02:01:20.351Z,276.62
2023-05-22T02:02:20.337Z,277.79
2023-05-22T02:03:20.404Z,274.77
2023-05-22T02:04:20.282Z,276.85
2023-05-22T02:05:20.277Z,275.69
2023-05-22T02:06:21.171Z,277.79
2023-05-22T02:07:20.315Z,275.46
2023-05-22T02:08:20.232Z,277.79
2023-05-22T02:09:20.197Z,277.79
2023-05-22T02:10:20.227Z,277.32
2023-05-22T02:11:20.185Z,278.02
2023-05-22T02:12:21.133Z,277.32
2023-05-22T02:13:20.150Z,278.26
2023-05-22T02:14:20.156Z,277.55
2023-05-22T02:15:20.144Z,276.85
2023-05-22T02:16:20.173Z,275.00
2023-05-22T02:17:20.112Z,277.32
2023-05-22T02:18:21.037Z,278.73
2023-05-22T02:19:20.183Z,277.55
2023-05-22T02:20:20.072Z,278.96
2023-05-22T02:21:20.100Z,277.79
2023-05-22T02:22:20.085Z,277.32
2023-05-22T02:23:20.084Z,276.62
2023-05-22T02:24:20.986Z,276.85
2023-05-22T02:25:19.996Z,276.85
2023-05-22T02:26:20.009Z,277.09
2023-05-22T02:27:19.982Z,277.55
2023-05-22T02:28:19.985Z,276.39
2023-05-22T02:29:20.903Z,278.26
2023-05-22T02:30:19.957Z,276.85
2023-05-22T02:31:20.014Z,278.26
2023-05-22T02:32:19.913Z,277.79
2023-05-22T02:33:19.922Z,277.09
2023-05-22T02:34:19.898Z,278.26
2023-05-22T02:35:20.857Z,278.96
2023-05-22T02:36:19.869Z,279.67
2023-05-22T02:37:19.882Z,277.09
2023-05-22T02:38:19.861Z,276.62
2023-05-22T02:39:19.859Z,277.79
2023-05-22T02:40:19.822Z,277.79
2023-05-22T02:41:20.769Z,279.20
2023-05-22T02:42:19.821Z,275.69
2023-05-22T02:43:19.845Z,278.73
2023-05-22T02:44:19.816Z,278.73
2023-05-22T02:45:19.778Z,277.32
2023-05-22T02:46:20.780Z,278.73
2023-05-22T02:47:19.722Z,277.55
2023-05-22T02:49:17.235Z,414.19
2023-05-22T02:50:17.250Z,358.53
2023-05-22T02:51:17.240Z,336.20
2023-05-22T02:52:18.269Z,321.75
2023-05-22T02:53:17.230Z,310.82
2023-05-22T02:54:17.164Z,305.63
2023-05-22T02:55:17.166Z,301.98
2023-05-22T02:56:17.172Z,297.62
2023-05-22T02:57:17.131Z,294.16
2023-05-22T02:58:18.105Z,292.85
2023-05-22T02:59:17.161Z,289.51
2023-05-22T03:00:17.092Z,288.75
2023-05-22T03:01:17.133Z,289.00
2023-05-22T03:02:17.113Z,287.49
2023-05-22T03:03:17.194Z,284.75
2023-05-22T03:04:18.026Z,283.77
2023-05-22T03:05:17.034Z,283.28
2023-05-22T03:06:17.048Z,282.80
2023-05-22T03:07:17.082Z,284.02
2023-05-22T03:08:17.353Z,282.07
2023-05-22T03:09:23.265Z,282.07
2023-05-22T03:10:16.968Z,281.83
2023-05-22T03:11:17.003Z,280.15
2023-05-22T03:12:16.944Z,281.59
2023-05-22T03:13:16.920Z,282.07
2023-05-22T03:14:16.944Z,280.63
2023-05-22T03:15:17.853Z,283.28
2023-05-22T03:16:17.097Z,280.63
2023-05-22T03:17:16.908Z,279.91
2023-05-22T03:18:16.861Z,279.91
2023-05-22T03:19:16.978Z,280.63
2023-05-22T03:20:17.781Z,281.35
2023-05-22T03:21:16.827Z,278.96
2023-05-22T03:22:16.847Z,279.91
2023-05-22T03:23:16.798Z,278.73
2023-05-22T03:24:16.842Z,281.83
2023-05-22T03:25:17.702Z,279.67
2023-05-22T03:26:16.798Z,278.49
2023-05-22T03:27:16.832Z,280.39
2023-05-22T03:28:16.732Z,279.67
2023-05-22T03:29:16.825Z,280.63
2023-05-22T03:30:16.729Z,279.91
2023-05-22T03:31:17.648Z,280.87
2023-05-22T03:32:16.715Z,279.67
2023-05-22T03:33:16.779Z,279.67
2023-05-22T03:34:16.692Z,279.20
2023-05-22T03:35:16.706Z,280.87
2023-05-22T03:36:16.676Z,278.49
2023-05-22T03:37:17.597Z,279.91
2023-05-22T03:38:16.639Z,279.67
2023-05-22T03:39:16.603Z,278.96
2023-05-22T03:40:16.652Z,279.20
2023-05-22T03:41:16.616Z,278.49
2023-05-22T03:42:16.611Z,280.63
2023-05-22T03:43:22.891Z,280.87
2023-05-22T03:44:16.577Z,279.67
2023-05-22T03:45:16.583Z,280.63
2023-05-22T03:46:16.673Z,280.15
2023-05-22T03:47:16.562Z,281.11
2023-05-22T03:48:17.407Z,279.44
2023-05-22T03:49:16.514Z,279.67
2023-05-22T03:50:16.479Z,279.67
2023-05-22T03:51:18.660Z,281.35
2023-05-22T03:52:16.524Z,280.15
2023-05-22T03:53:16.423Z,280.15
2023-05-22T03:54:22.848Z,278.96
2023-05-22T03:55:16.423Z,277.32
2023-05-22T03:56:16.381Z,280.87
2023-05-22T03:57:16.379Z,279.91
2023-05-22T03:58:16.393Z,279.91
2023-05-22T03:59:16.444Z,278.26
2023-05-22T04:00:17.355Z,278.26
2023-05-22T04:01:16.345Z,278.26
2023-05-22T04:02:16.385Z,278.96
2023-05-22T04:03:16.398Z,278.26
2023-05-22T04:04:16.347Z,281.11
2023-05-22T04:05:22.530Z,280.15
2023-05-22T04:06:16.305Z,279.20
2023-05-22T04:07:16.372Z,280.15
2023-05-22T04:08:16.283Z,279.20
2023-05-22T04:09:16.208Z,279.91
2023-05-22T04:10:16.212Z,278.73
2023-05-22T04:11:17.190Z,278.49
2023-05-22T04:12:16.259Z,280.87
2023-05-22T04:13:16.207Z,279.67
2023-05-22T04:14:16.166Z,280.15
2023-05-22T04:15:16.156Z,280.87
2023-05-22T04:16:17.224Z,279.91
2023-05-22T04:17:16.146Z,280.15
2023-05-22T04:18:16.153Z,279.67
2023-05-22T04:19:16.166Z,281.83
2023-05-22T04:20:16.154Z,279.44
2023-05-22T04:21:22.329Z,281.35
2023-05-22T04:22:16.045Z,282.07
2023-05-22T04:23:16.071Z,280.39
2023-05-22T04:24:16.012Z,281.59
2023-05-22T04:25:16.080Z,282.80
2023-05-22T04:26:16.965Z,282.55
2023-05-22T04:27:16.053Z,279.91
2023-05-22T04:28:15.977Z,282.07
2023-05-22T04:29:15.950Z,281.35
2023-05-22T04:30:15.976Z,281.83
2023-05-22T04:31:17.018Z,282.55
2023-05-22T04:32:15.981Z,282.31
2023-05-22T04:33:15.955Z,282.55
2023-05-22T04:34:15.915Z,281.59
2023-05-22T04:35:15.957Z,280.39
2023-05-22T04:36:16.836Z,283.53
2023-05-22T04:37:15.919Z,282.55
2023-05-22T04:38:15.888Z,283.04
2023-05-22T04:39:15.875Z,281.35
2023-05-22T04:40:15.883Z,283.04
2023-05-22T04:41:15.846Z,281.59
2023-05-22T04:42:16.756Z,282.55
2023-05-22T04:43:15.782Z,279.91
2023-05-22T04:44:15.762Z,282.80
2023-05-22T04:45:15.780Z,283.04
2023-05-22T04:46:15.873Z,281.59
2023-05-22T04:47:15.747Z,281.11
2023-05-22T04:48:16.700Z,281.11
2023-05-22T04:49:15.972Z,283.04
2023-05-22T04:50:15.765Z,280.87
2023-05-22T04:51:15.768Z,282.31
2023-05-22T04:52:15.664Z,281.83
2023-05-22T04:53:15.661Z,282.31
2023-05-22T04:54:16.606Z,282.55
2023-05-22T04:55:15.793Z,279.44
2023-05-22T04:56:24.312Z,279.44
2023-05-22T04:57:17.214Z,281.35
2023-05-22T04:58:15.624Z,282.55
2023-05-22T04:59:15.634Z,281.59
2023-05-22T05:00:16.514Z,282.55
2023-05-22T05:01:15.663Z,281.11
2023-05-22T05:02:15.595Z,282.80
2023-05-22T05:03:15.728Z,282.55
2023-05-22T05:04:15.548Z,282.80
2023-05-22T05:05:21.787Z,280.87
2023-05-22T05:06:15.474Z,282.07
2023-05-22T05:07:15.484Z,279.67
2023-05-22T05:08:15.510Z,281.35
2023-05-22T05:09:15.447Z,281.35
2023-05-22T05:10:15.481Z,281.11
2023-05-22T05:11:16.379Z,281.59
2023-05-22T05:12:15.476Z,281.11
2023-05-22T05:13:15.429Z,280.63
2023-05-22T05:14:15.423Z,280.63
2023-05-22T05:15:15.393Z,280.63
2023-05-22T05:16:16.350Z,282.31
2023-05-22T05:17:15.358Z,280.63
2023-05-22T05:18:15.394Z,281.83
2023-05-22T05:19:15.430Z,280.63
2023-05-22T05:20:15.365Z,280.87
2023-05-22T05:21:16.298Z,280.15
2023-05-22T05:22:15.258Z,280.39
2023-05-22T05:23:15.262Z,279.44
2023-05-22T05:24:15.305Z,280.87
2023-05-22T05:25:15.332Z,278.73
2023-05-22T05:26:15.244Z,278.96
2023-05-22T05:27:16.208Z,281.11
2023-05-22T05:28:15.268Z,282.07
2023-05-22T05:29:15.233Z,281.11
2023-05-22T05:30:15.185Z,280.15
2023-05-22T05:31:15.187Z,280.63
2023-05-22T05:32:15.244Z,281.59
2023-05-22T05:33:21.417Z,279.67
2023-05-22T05:34:15.155Z,280.39
2023-05-22T05:35:15.124Z,281.11
2023-05-22T05:36:15.122Z,282.07
2023-05-22T05:37:15.115Z,281.11
2023-05-22T05:38:15.121Z,280.15
2023-05-22T05:39:21.392Z,281.59
2023-05-22T05:40:15.170Z,283.04
2023-05-22T05:41:15.052Z,279.44
2023-05-22T05:42:15.122Z,281.83
2023-05-22T05:43:15.092Z,282.80
2023-05-22T05:44:15.062Z,280.15
2023-05-22T05:45:21.328Z,282.07
2023-05-22T05:46:15.032Z,280.15
2023-05-22T05:47:15.078Z,280.39
2023-05-22T05:48:14.953Z,280.63
2023-05-22T05:49:14.972Z,280.15
2023-05-22T05:50:15.901Z,280.39
2023-05-22T05:51:14.978Z,281.35
2023-05-22T05:52:14.945Z,279.67
2023-05-22T05:53:14.995Z,280.39
2023-05-22T05:54:14.897Z,279.44
2023-05-22T05:55:21.165Z,280.15
2023-05-22T05:56:14.861Z,280.63
2023-05-22T05:57:14.969Z,280.15
2023-05-22T05:58:14.875Z,279.91
2023-05-22T05:59:14.899Z,277.79
2023-05-22T06:00:14.874Z,281.11
2023-05-22T06:01:21.130Z,279.67
2023-05-22T06:02:14.851Z,279.44
2023-05-22T06:03:15.596Z,279.67
2023-05-22T06:04:14.804Z,280.15
2023-05-22T06:05:14.799Z,280.15
2023-05-22T06:06:14.789Z,280.63
2023-05-22T06:07:15.702Z,280.63
2023-05-22T06:08:14.779Z,279.67
2023-05-22T06:09:14.693Z,280.15
2023-05-22T06:10:14.721Z,279.44
2023-05-22T06:11:15.390Z,278.96
2023-05-22T06:12:15.593Z,279.91
2023-05-22T06:13:14.763Z,279.67
2023-05-22T06:14:14.629Z,279.91
2023-05-22T06:15:14.649Z,278.26
2023-05-22T06:16:14.633Z,279.20
2023-05-22T06:17:15.628Z,280.15
2023-05-22T06:18:14.629Z,278.26
2023-05-22T06:19:14.668Z,278.26
2023-05-22T06:20:14.645Z,277.55
2023-05-22T06:21:14.615Z,277.32
2023-05-22T06:22:14.586Z,278.26
2023-05-22T06:23:15.498Z,278.02
2023-05-22T06:24:14.469Z,276.85
2023-05-22T06:25:14.507Z,277.09
2023-05-22T06:26:14.467Z,275.92
2023-05-22T06:27:14.473Z,275.92
2023-05-22T06:28:14.481Z,276.85
2023-05-22T06:29:15.396Z,276.85
2023-05-22T06:30:16.912Z,277.32
2023-05-22T06:31:16.043Z,275.46
2023-05-22T06:32:14.505Z,274.55
2023-05-22T06:33:14.501Z,275.69
2023-05-22T06:34:15.353Z,275.23
2023-05-22T06:35:14.441Z,273.86
2023-05-22T06:36:14.373Z,275.00
2023-05-22T06:37:14.388Z,275.00
2023-05-22T06:38:14.335Z,270.49
2023-05-22T06:39:15.280Z,273.18
2023-05-22T06:40:14.279Z,270.93
2023-05-22T06:41:14.348Z,270.04
2023-05-22T06:42:14.302Z,271.83
2023-05-22T06:43:14.266Z,270.26
2023-05-22T06:44:15.274Z,269.16
2023-05-22T06:45:14.253Z,271.38
2023-05-22T06:46:14.370Z,270.04
2023-05-22T06:47:14.214Z,269.16
2023-05-22T06:48:14.281Z,269.82
2023-05-22T06:49:15.154Z,268.28
2023-05-22T06:50:14.177Z,267.85
2023-05-22T06:51:14.153Z,268.50
2023-05-22T06:52:14.143Z,269.16
2023-05-22T06:53:14.158Z,268.50
2023-05-22T06:54:14.157Z,266.98
2023-05-22T06:55:15.078Z,266.11
2023-05-22T06:56:14.110Z,265.90
2023-05-22T06:57:14.099Z,267.85
2023-05-22T06:58:14.110Z,265.90
2023-05-22T06:59:14.026Z,266.55
2023-05-22T07:00:14.078Z,266.55
2023-05-22T07:01:14.980Z,264.41
2023-05-22T07:02:13.999Z,266.11
2023-05-22T07:03:14.085Z,266.76
2023-05-22T07:04:14.004Z,266.33
2023-05-22T07:05:13.970Z,266.33
2023-05-22T07:06:14.032Z,264.62
2023-05-22T07:07:14.946Z,264.83
2023-05-22T07:08:13.965Z,264.41
2023-05-22T07:09:14.631Z,264.83
2023-05-22T07:10:13.923Z,263.98
2023-05-22T07:11:13.917Z,263.56
2023-05-22T07:12:14.917Z,264.19
2023-05-22T07:13:13.956Z,263.77
2023-05-22T07:14:13.890Z,263.14
2023-05-22T07:15:13.877Z,262.72
2023-05-22T07:16:13.858Z,262.09
2023-05-22T07:17:14.779Z,262.72
2023-05-22T07:18:13.893Z,262.30
2023-05-22T07:19:13.875Z,261.67
2023-05-22T07:20:13.825Z,261.47
2023-05-22T07:21:13.786Z,259.61
2023-05-22T07:22:13.861Z,260.43
2023-05-22T07:23:14.793Z,259.20
2023-05-22T07:24:13.862Z,259.20
2023-05-22T07:25:13.880Z,260.02
2023-05-22T07:26:13.775Z,257.78
2023-05-22T07:27:14.487Z,258.59
2023-05-22T07:28:15.573Z,256.58
2023-05-22T07:29:13.688Z,255.98
2023-05-22T07:30:13.711Z,255.58
2023-05-22T07:31:13.714Z,255.98
2023-05-22T07:32:13.652Z,254.20
2023-05-22T07:33:13.792Z,254.60
2023-05-22T07:34:14.551Z,254.99
2023-05-22T07:35:13.630Z,254.79
2023-05-22T07:36:13.670Z,254.60
2023-05-22T07:37:13.625Z,252.64
2023-05-22T07:38:13.655Z,252.45
2023-05-22T07:39:14.524Z,253.03
2023-05-22T07:40:13.561Z,252.45
2023-05-22T07:41:13.558Z,252.06
2023-05-22T07:42:13.573Z,252.06
2023-05-22T07:43:13.589Z,251.68
2023-05-22T07:44:19.738Z,251.68
2023-05-22T07:45:13.482Z,251.10
2023-05-22T07:46:13.619Z,249.58
2023-05-22T07:47:13.509Z,249.39
2023-05-22T07:48:13.544Z,249.58
2023-05-22T07:49:14.366Z,249.01
2023-05-22T07:50:13.468Z,247.33
2023-05-22T07:51:13.481Z,247.33
2023-05-22T07:52:13.390Z,245.49
2023-05-22T07:53:13.364Z,245.85
2023-05-22T07:54:14.347Z,248.45
2023-05-22T07:55:13.424Z,244.03
2023-05-22T07:56:13.384Z,246.59
2023-05-22T07:57:13.381Z,241.88
2023-05-22T07:58:13.326Z,243.85
2023-05-22T07:59:14.112Z,242.59
2023-05-22T08:00:14.296Z,240.29
2023-05-22T08:01:13.347Z,241.35
2023-05-22T08:02:13.285Z,241.88
2023-05-22T08:03:13.343Z,240.12
2023-05-22T08:04:13.387Z,239.42
2023-05-22T08:05:13.287Z,240.12
2023-05-22T08:06:14.149Z,238.38
2023-05-22T08:07:13.239Z,238.38
2023-05-22T08:08:13.197Z,237.69
2023-05-22T08:09:13.205Z,236.67
2023-05-22T08:10:13.300Z,234.98
2023-05-22T08:11:13.152Z,234.98
2023-05-22T08:12:14.208Z,232.98
2023-05-22T08:13:13.160Z,234.14
2023-05-22T08:14:13.104Z,232.49
2023-05-22T08:15:13.144Z,231.02
2023-05-22T08:16:13.152Z,231.83
2023-05-22T08:17:13.295Z,230.70
2023-05-22T08:18:14.012Z,229.41
2023-05-22T08:19:13.176Z,227.98
2023-05-22T08:20:13.128Z,226.26
2023-05-22T08:21:13.029Z,227.04
2023-05-22T08:22:13.041Z,225.64
2023-05-22T08:23:13.083Z,223.80
2023-05-22T08:24:13.970Z,224.10
2023-05-22T08:25:12.973Z,223.35
2023-05-22T08:26:13.028Z,222.59
2023-05-22T08:27:13.022Z,221.24
2023-05-22T08:28:13.003Z,221.69
2023-05-22T08:29:12.969Z,219.77
2023-05-22T08:30:14.030Z,219.62
2023-05-22T08:31:12.942Z,218.75
2023-05-22T08:32:12.923Z,218.46
2023-05-22T08:33:12.970Z,217.59
2023-05-22T08:34:12.885Z,217.02
2023-05-22T08:35:12.922Z,217.30
2023-05-22T08:36:13.835Z,215.74
2023-05-22T08:37:12.846Z,215.74
2023-05-22T08:38:12.848Z,214.89
2023-05-22T08:39:12.819Z,215.46
2023-05-22T08:40:12.925Z,214.75
2023-05-22T08:41:12.774Z,212.54
2023-05-22T08:42:13.801Z,214.05
2023-05-22T08:43:12.790Z,212.26
2023-05-22T08:44:12.805Z,213.64
2023-05-22T08:45:12.745Z,213.36
2023-05-22T08:46:12.762Z,212.54
2023-05-22T08:47:12.824Z,213.09
2023-05-22T08:48:14.658Z,213.09
2023-05-22T08:49:12.743Z,211.44
2023-05-22T08:50:12.731Z,212.26
2023-05-22T08:51:12.625Z,211.85
2023-05-22T08:52:12.675Z,210.90
2023-05-22T08:53:12.675Z,210.77
2023-05-22T08:54:13.586Z,210.90
2023-05-22T08:55:12.662Z,210.36
2023-05-22T08:56:12.596Z,209.16
2023-05-22T08:57:12.655Z,209.03
2023-05-22T08:58:12.598Z,207.84
2023-05-22T08:59:13.484Z,207.71
2023-05-22T09:00:12.578Z,207.71
2023-05-22T09:01:12.571Z,207.32
2023-05-22T09:02:13.394Z,206.67
2023-05-22T09:03:12.646Z,206.54
2023-05-22T09:04:13.503Z,206.02
2023-05-22T09:05:12.532Z,204.87
2023-05-22T09:06:12.536Z,204.61
2023-05-22T09:07:12.594Z,203.47
2023-05-22T09:08:20.415Z,202.60
2023-05-22T09:09:13.973Z,201.98
2023-05-22T09:10:13.366Z,201.98
2023-05-22T09:11:12.560Z,201.98
2023-05-22T09:12:12.436Z,200.50
2023-05-22T09:13:12.421Z,199.65
2023-05-22T09:14:12.400Z,200.14
2023-05-22T09:15:13.341Z,197.73
2023-05-22T09:16:12.409Z,198.45
2023-05-22T09:17:12.358Z,197.97
2023-05-22T09:18:12.418Z,196.90
2023-05-22T09:19:12.320Z,195.62
2023-05-22T09:20:12.339Z,194.92
2023-05-22T09:21:28.287Z,195.50
2023-05-22T09:22:13.778Z,193.78
2023-05-22T09:23:12.314Z,193.21
2023-05-22T09:24:12.290Z,192.87
2023-05-22T09:25:12.371Z,193.10
2023-05-22T09:26:12.319Z,191.75
2023-05-22T09:27:13.218Z,190.31
2023-05-22T09:28:12.191Z,192.08
2023-05-22T09:29:12.255Z,190.20
2023-05-22T09:30:12.210Z,189.32
2023-05-22T09:31:12.269Z,189.00
2023-05-22T09:32:13.108Z,189.98
2023-05-22T09:33:12.382Z,188.67
2023-05-22T09:34:12.174Z,188.02
2023-05-22T09:35:12.123Z,189.10
2023-05-22T09:36:12.136Z,189.10
2023-05-22T09:37:12.102Z,189.76
2023-05-22T09:38:13.046Z,189.54
2023-05-22T09:39:12.072Z,189.10
2023-05-22T09:40:12.146Z,189.32
2023-05-22T09:41:12.174Z,189.21
2023-05-22T09:42:12.058Z,188.78
2023-05-22T09:43:13.002Z,188.89
2023-05-22T09:44:12.009Z,188.89
2023-05-22T09:45:12.100Z,189.00
2023-05-22T09:46:12.167Z,188.56
2023-05-22T09:47:12.023Z,187.81
2023-05-22T09:48:11.983Z,188.35
2023-05-22T09:49:16.168Z,188.56
2023-05-22T09:50:11.950Z,188.24
2023-05-22T09:51:12.012Z,186.96
2023-05-22T09:52:11.983Z,188.35
2023-05-22T09:53:11.946Z,186.96
2023-05-22T09:54:11.897Z,186.11
2023-05-22T09:55:13.549Z,186.32
2023-05-22T09:56:11.859Z,185.90
2023-05-22T09:57:11.921Z,184.96
2023-05-22T09:58:11.881Z,186.32
2023-05-22T09:59:11.800Z,185.90
2023-05-22T10:00:11.904Z,185.08
2023-05-22T10:01:12.823Z,185.70
2023-05-22T10:02:11.935Z,185.49
2023-05-22T10:03:11.858Z,184.67
2023-05-22T10:04:11.822Z,185.49
2023-05-22T10:05:11.805Z,185.08
2023-05-22T10:06:11.803Z,185.08
2023-05-22T10:07:12.731Z,184.88
2023-05-22T10:08:11.819Z,184.88
2023-05-22T10:09:11.715Z,183.86
2023-05-22T10:10:11.809Z,184.47
2023-05-22T10:11:11.822Z,183.86
2023-05-22T10:12:12.774Z,183.26
2023-05-22T10:13:11.721Z,183.66
2023-05-22T10:14:11.673Z,182.86
2023-05-22T10:15:11.720Z,182.66
2023-05-22T10:16:11.664Z,181.87
2023-05-22T10:17:12.579Z,181.47
2023-05-22T10:18:11.621Z,181.87
2023-05-22T10:19:11.683Z,180.49
2023-05-22T10:20:11.651Z,181.28
2023-05-22T10:21:11.625Z,179.91
2023-05-22T10:22:11.608Z,180.88
2023-05-22T10:23:12.625Z,180.30
2023-05-22T10:24:11.567Z,179.34
2023-05-22T10:25:11.559Z,178.57
2023-05-22T10:26:11.534Z,178.95
2023-05-22T10:27:11.510Z,178.38
2023-05-22T10:28:12.454Z,177.62
2023-05-22T10:29:11.574Z,177.62
2023-05-22T10:30:11.503Z,176.50
2023-05-22T10:31:11.443Z,176.13
2023-05-22T10:32:11.422Z,177.06
2023-05-22T10:33:11.507Z,175.95
2023-05-22T10:34:12.520Z,176.32
2023-05-22T10:35:11.435Z,174.66
2023-05-22T10:36:11.413Z,173.22
2023-05-22T10:37:18.576Z,173.22
2023-05-22T10:38:12.993Z,172.50
2023-05-22T10:39:11.379Z,171.79
2023-05-22T10:40:18.351Z,171.27
2023-05-22T10:41:11.374Z,170.40
2023-05-22T10:42:11.346Z,170.05
2023-05-22T10:43:11.302Z,169.53
2023-05-22T10:44:11.442Z,168.68
2023-05-22T10:45:11.386Z,168.17
2023-05-22T10:46:12.377Z,168.00
2023-05-22T10:47:12.035Z,169.36
2023-05-22T10:48:11.254Z,168.68
2023-05-22T10:49:11.216Z,167.50
2023-05-22T10:50:11.256Z,166.34
2023-05-22T10:51:11.230Z,164.54
2023-05-22T10:52:12.172Z,163.10
2023-05-22T10:53:11.245Z,160.59
2023-05-22T10:54:11.171Z,159.68
2023-05-22T10:55:11.204Z,158.92
2023-05-22T10:56:11.144Z,157.28
2023-05-22T10:57:11.158Z,156.98
2023-05-22T10:58:12.357Z,155.09
2023-05-22T10:59:11.156Z,153.81
2023-05-22T11:00:11.134Z,152.13
2023-05-22T11:01:11.127Z,150.49
2023-05-22T11:02:11.609Z,147.97
2023-05-22T11:03:17.794Z,145.02
2023-05-22T11:04:13.551Z,143.53
2023-05-22T11:05:11.268Z,141.83
2023-05-22T11:06:11.198Z,139.93
2023-05-22T11:07:11.056Z,139.82
2023-05-22T11:08:11.005Z,138.43
2023-05-22T11:09:10.989Z,138.77
2023-05-22T11:10:11.971Z,138.43
2023-05-22T11:11:11.175Z,138.32
2023-05-22T11:12:10.966Z,137.86
2023-05-22T11:13:10.990Z,137.29
2023-05-22T11:14:10.949Z,137.41
2023-05-22T11:15:11.583Z,137.07
2023-05-22T11:16:11.945Z,136.73
2023-05-22T11:17:11.034Z,136.40
2023-05-22T11:18:10.924Z,137.07
2023-05-22T11:19:22.789Z,135.63
2023-05-22T11:20:12.541Z,136.73
2023-05-22T11:21:11.837Z,135.85
2023-05-22T11:22:10.853Z,136.51
2023-05-22T11:23:10.964Z,136.07
2023-05-22T11:24:10.875Z,135.96
2023-05-22T11:25:10.866Z,135.63
2023-05-22T11:26:11.853Z,136.73
2023-05-22T11:27:10.820Z,136.62
2023-05-22T11:28:10.791Z,136.85
2023-05-22T11:29:10.777Z,136.18
2023-05-22T11:30:10.773Z,136.51
2023-05-22T11:31:11.804Z,135.85
2023-05-22T11:32:10.851Z,136.62
2023-05-22T11:33:10.795Z,136.73
2023-05-22T11:34:10.738Z,137.07
2023-05-22T11:35:10.704Z,136.62
2023-05-22T11:36:11.658Z,136.51
2023-05-22T11:37:10.687Z,137.18
2023-05-22T11:38:10.654Z,136.85
2023-05-22T11:39:10.700Z,136.85
2023-05-22T11:40:10.686Z,137.75
2023-05-22T11:41:11.625Z,136.85
2023-05-22T11:42:10.628Z,137.63
2023-05-22T11:43:10.668Z,137.07
2023-05-22T11:44:10.602Z,137.63
2023-05-22T11:45:10.610Z,137.18
2023-05-22T11:46:11.628Z,136.07
2023-05-22T11:47:10.567Z,135.85
2023-05-22T11:48:10.764Z,136.18
2023-05-22T11:49:10.565Z,135.41
2023-05-22T11:50:10.577Z,135.63
2023-05-22T11:51:10.535Z,135.41
2023-05-22T11:52:11.425Z,135.52
2023-05-22T11:53:10.565Z,135.63
2023-05-22T11:54:10.512Z,136.18
2023-05-22T11:55:10.534Z,136.51
2023-05-22T11:56:10.459Z,136.29
2023-05-22T11:57:10.598Z,137.07
2023-05-22T11:58:11.449Z,135.41
2023-05-22T11:59:10.427Z,136.29
2023-05-22T12:00:10.454Z,137.86
2023-05-22T12:01:10.383Z,137.86
2023-05-22T12:02:10.391Z,137.29
2023-05-22T12:03:11.437Z,137.41
2023-05-22T12:04:10.426Z,137.97
2023-05-22T12:05:10.326Z,138.09
2023-05-22T12:06:10.360Z,137.97
2023-05-22T12:07:10.380Z,136.96
2023-05-22T12:08:11.245Z,137.07
2023-05-22T12:09:10.448Z,137.07
2023-05-22T12:10:10.278Z,135.96
2023-05-22T12:11:10.364Z,134.97
2023-05-22T12:12:10.311Z,134.32
2023-05-22T12:13:10.270Z,133.15
2023-05-22T12:14:11.170Z,131.68
2023-05-22T12:15:10.258Z,131.37
2023-05-22T12:16:10.256Z,130.35
2023-05-22T12:17:10.191Z,129.34
2023-05-22T12:18:10.246Z,128.16
2023-05-22T12:19:10.184Z,127.28
2023-05-22T12:20:11.122Z,126.32
2023-05-22T12:21:10.220Z,125.47
2023-05-22T12:22:10.146Z,125.37
2023-05-22T12:23:10.214Z,124.54
2023-05-22T12:24:10.133Z,123.71
2023-05-22T12:25:11.030Z,123.43
2023-05-22T12:26:10.151Z,122.71
2023-05-22T12:27:10.179Z,121.11
2023-05-22T12:28:10.092Z,120.33
2023-05-22T12:29:10.070Z,120.07